sensor_id;sensor_type;location;lat;lon;timestamp;P1;durP1;ratioP1;P2;durP2;ratioP2
24813;SDS011;12904;50.088;11.414;2023-02-20T00:02:24;8.63;;;7.30;;
24813;SDS011;12904;50.088;11.414;2023-02-20T00:04:50;8.65;;;7.47;;
24813;SDS011;12904;50.088;11.414;2023-02-20T00:07:16;8.45;;;6.80;;
24813;SDS011;12904;50.088;11.414;2023-02-20T00:09:41;9.93;;;7.32;;
24813;SDS011;12904;50.088;11.414;2023-02-20T00:12:07;7.82;;;6.82;;
24813;SDS011;12904;50.088;11.414;2023-02-20T00:14:32;10.65;;;7.38;;
24813;SDS011;12904;50.088;11.414;2023-02-20T00:16:58;11.50;;;7.30;;
24813;SDS011;12904;50.088;11.414;2023-02-20T00:19:24;12.13;;;7.20;;
24813;SDS011;12904;50.088;11.414;2023-02-20T00:21:49;10.68;;;7.75;;
24813;SDS011;12904;50.088;11.414;2023-02-20T00:24:17;12.77;;;7.80;;
24813;SDS011;12904;50.088;11.414;2023-02-20T00:26:49;8.13;;;6.63;;
24813;SDS011;12904;50.088;11.414;2023-02-20T00:29:17;9.02;;;8.07;;
24813;SDS011;12904;50.088;11.414;2023-02-20T00:31:51;12.20;;;7.45;;
24813;SDS011;12904;50.088;11.414;2023-02-20T00:34:18;8.70;;;7.53;;
24813;SDS011;12904;50.088;11.414;2023-02-20T00:36:44;10.93;;;7.03;;
24813;SDS011;12904;50.088;11.414;2023-02-20T00:39:10;12.13;;;7.47;;
24813;SDS011;12904;50.088;11.414;2023-02-20T00:41:35;10.85;;;6.88;;
24813;SDS011;12904;50.088;11.414;2023-02-20T00:44:01;8.48;;;6.45;;
24813;SDS011;12904;50.088;11.414;2023-02-20T00:46:27;8.23;;;6.60;;
24813;SDS011;12904;50.088;11.414;2023-02-20T00:48:52;7.03;;;6.32;;
24813;SDS011;12904;50.088;11.414;2023-02-20T00:51:18;10.10;;;7.20;;
24813;SDS011;12904;50.088;11.414;2023-02-20T00:53:44;7.20;;;6.50;;
24813;SDS011;12904;50.088;11.414;2023-02-20T00:56:09;9.27;;;6.43;;
24813;SDS011;12904;50.088;11.414;2023-02-20T00:58:35;7.93;;;6.63;;
24813;SDS011;12904;50.088;11.414;2023-02-20T01:01:01;7.40;;;6.55;;
24813;SDS011;12904;50.088;11.414;2023-02-20T01:03:26;7.40;;;6.70;;
24813;SDS011;12904;50.088;11.414;2023-02-20T01:05:52;9.48;;;7.28;;
24813;SDS011;12904;50.088;11.414;2023-02-20T01:08:17;10.45;;;7.45;;
24813;SDS011;12904;50.088;11.414;2023-02-20T01:10:43;8.30;;;7.47;;
24813;SDS011;12904;50.088;11.414;2023-02-20T01:13:09;7.95;;;7.15;;
24813;SDS011;12904;50.088;11.414;2023-02-20T01:15:34;11.07;;;7.72;;
24813;SDS011;12904;50.088;11.414;2023-02-20T01:18:00;9.45;;;7.70;;
24813;SDS011;12904;50.088;11.414;2023-02-20T01:20:25;8.00;;;6.97;;
24813;SDS011;12904;50.088;11.414;2023-02-20T01:22:51;8.95;;;7.82;;
24813;SDS011;12904;50.088;11.414;2023-02-20T01:25:17;8.68;;;7.78;;
24813;SDS011;12904;50.088;11.414;2023-02-20T01:27:42;11.93;;;7.95;;
24813;SDS011;12904;50.088;11.414;2023-02-20T01:30:08;8.50;;;7.22;;
24813;SDS011;12904;50.088;11.414;2023-02-20T01:32:34;11.65;;;8.45;;
24813;SDS011;12904;50.088;11.414;2023-02-20T01:35:00;8.18;;;7.35;;
24813;SDS011;12904;50.088;11.414;2023-02-20T01:37:26;10.05;;;7.38;;
24813;SDS011;12904;50.088;11.414;2023-02-20T01:39:52;12.25;;;7.63;;
24813;SDS011;12904;50.088;11.414;2023-02-20T01:42:19;9.35;;;7.75;;
24813;SDS011;12904;50.088;11.414;2023-02-20T01:44:46;12.95;;;9.52;;
24813;SDS011;12904;50.088;11.414;2023-02-20T01:47:16;10.60;;;8.50;;
24813;SDS011;12904;50.088;11.414;2023-02-20T01:49:44;12.05;;;8.63;;
24813;SDS011;12904;50.088;11.414;2023-02-20T01:55:11;10.52;;;9.05;;
24813;SDS011;12904;50.088;11.414;2023-02-20T01:57:54;11.77;;;8.93;;
24813;SDS011;12904;50.088;11.414;2023-02-20T02:00:27;11.02;;;8.65;;
24813;SDS011;12904;50.088;11.414;2023-02-20T02:02:57;11.88;;;8.80;;
24813;SDS011;12904;50.088;11.414;2023-02-20T02:05:28;10.57;;;8.75;;
24813;SDS011;12904;50.088;11.414;2023-02-20T02:07:57;11.27;;;9.13;;
24813;SDS011;12904;50.088;11.414;2023-02-20T02:10:46;11.80;;;8.88;;
24813;SDS011;12904;50.088;11.414;2023-02-20T02:13:13;12.35;;;9.18;;
24813;SDS011;12904;50.088;11.414;2023-02-20T02:15:39;10.05;;;8.23;;
24813;SDS011;12904;50.088;11.414;2023-02-20T02:32:27;9.77;;;7.22;;
24813;SDS011;12904;50.088;11.414;2023-02-20T02:45:58;9.80;;;7.20;;
24813;SDS011;12904;50.088;11.414;2023-02-20T02:48:36;9.00;;;7.22;;
24813;SDS011;12904;50.088;11.414;2023-02-20T02:51:09;8.68;;;7.10;;
24813;SDS011;12904;50.088;11.414;2023-02-20T02:53:40;12.15;;;7.30;;
24813;SDS011;12904;50.088;11.414;2023-02-20T02:56:05;9.38;;;7.13;;
24813;SDS011;12904;50.088;11.414;2023-02-20T02:58:48;8.23;;;7.03;;
24813;SDS011;12904;50.088;11.414;2023-02-20T03:01:18;8.43;;;6.70;;
24813;SDS011;12904;50.088;11.414;2023-02-20T03:03:45;8.63;;;7.30;;
24813;SDS011;12904;50.088;11.414;2023-02-20T03:06:17;9.60;;;7.72;;
24813;SDS011;12904;50.088;11.414;2023-02-20T03:09:04;9.38;;;7.68;;
24813;SDS011;12904;50.088;11.414;2023-02-20T03:17:31;10.10;;;7.75;;
24813;SDS011;12904;50.088;11.414;2023-02-20T03:20:02;9.10;;;7.53;;
24813;SDS011;12904;50.088;11.414;2023-02-20T03:25:23;9.48;;;7.05;;
24813;SDS011;12904;50.088;11.414;2023-02-20T03:30:19;10.70;;;7.55;;
24813;SDS011;12904;50.088;11.414;2023-02-20T03:32:51;9.40;;;7.40;;
24813;SDS011;12904;50.088;11.414;2023-02-20T03:36:07;13.32;;;7.55;;
24813;SDS011;12904;50.088;11.414;2023-02-20T03:38:59;10.25;;;7.75;;
24813;SDS011;12904;50.088;11.414;2023-02-20T03:41:47;12.93;;;7.07;;
24813;SDS011;12904;50.088;11.414;2023-02-20T03:44:32;9.35;;;7.47;;
24813;SDS011;12904;50.088;11.414;2023-02-20T03:47:00;8.77;;;7.90;;
24813;SDS011;12904;50.088;11.414;2023-02-20T03:49:28;9.98;;;8.35;;
24813;SDS011;12904;50.088;11.414;2023-02-20T03:51:59;12.43;;;8.85;;
24813;SDS011;12904;50.088;11.414;2023-02-20T03:54:25;12.15;;;7.93;;
24813;SDS011;12904;50.088;11.414;2023-02-20T03:56:53;11.48;;;8.15;;
24813;SDS011;12904;50.088;11.414;2023-02-20T03:59:37;9.23;;;7.72;;
24813;SDS011;12904;50.088;11.414;2023-02-20T04:02:14;12.65;;;7.25;;
24813;SDS011;12904;50.088;11.414;2023-02-20T04:04:47;13.68;;;8.23;;
24813;SDS011;12904;50.088;11.414;2023-02-20T04:07:23;9.52;;;8.52;;
24813;SDS011;12904;50.088;11.414;2023-02-20T04:09:55;10.60;;;7.30;;
24813;SDS011;12904;50.088;11.414;2023-02-20T04:12:28;9.25;;;7.68;;
24813;SDS011;12904;50.088;11.414;2023-02-20T04:14:56;9.27;;;7.22;;
24813;SDS011;12904;50.088;11.414;2023-02-20T04:17:25;9.40;;;6.65;;
24813;SDS011;12904;50.088;11.414;2023-02-20T04:19:56;13.80;;;7.50;;
24813;SDS011;12904;50.088;11.414;2023-02-20T04:22:24;10.25;;;7.47;;
24813;SDS011;12904;50.088;11.414;2023-02-20T04:25:02;11.20;;;8.00;;
24813;SDS011;12904;50.088;11.414;2023-02-20T04:27:37;7.70;;;6.90;;
24813;SDS011;12904;50.088;11.414;2023-02-20T04:30:03;9.52;;;7.43;;
24813;SDS011;12904;50.088;11.414;2023-02-20T04:32:29;10.90;;;7.28;;
24813;SDS011;12904;50.088;11.414;2023-02-20T04:34:55;8.32;;;7.22;;
24813;SDS011;12904;50.088;11.414;2023-02-20T04:37:21;8.55;;;7.07;;
24813;SDS011;12904;50.088;11.414;2023-02-20T04:39:47;10.65;;;7.35;;
24813;SDS011;12904;50.088;11.414;2023-02-20T04:42:13;10.45;;;7.45;;
24813;SDS011;12904;50.088;11.414;2023-02-20T04:44:39;10.50;;;7.00;;
24813;SDS011;12904;50.088;11.414;2023-02-20T04:47:06;9.02;;;7.45;;
24813;SDS011;12904;50.088;11.414;2023-02-20T04:49:35;9.90;;;6.90;;
24813;SDS011;12904;50.088;11.414;2023-02-20T04:52:00;9.15;;;6.90;;
24813;SDS011;12904;50.088;11.414;2023-02-20T04:54:26;7.90;;;6.80;;
24813;SDS011;12904;50.088;11.414;2023-02-20T04:56:52;11.73;;;7.55;;
24813;SDS011;12904;50.088;11.414;2023-02-20T04:59:18;10.52;;;7.47;;
24813;SDS011;12904;50.088;11.414;2023-02-20T05:01:43;9.82;;;7.07;;
24813;SDS011;12904;50.088;11.414;2023-02-20T05:04:13;8.35;;;6.88;;
24813;SDS011;12904;50.088;11.414;2023-02-20T05:06:43;11.97;;;7.70;;
24813;SDS011;12904;50.088;11.414;2023-02-20T05:09:09;10.75;;;7.57;;
24813;SDS011;12904;50.088;11.414;2023-02-20T05:11:36;10.93;;;7.50;;
24813;SDS011;12904;50.088;11.414;2023-02-20T05:14:02;14.30;;;7.70;;
24813;SDS011;12904;50.088;11.414;2023-02-20T05:16:29;10.25;;;7.63;;
24813;SDS011;12904;50.088;11.414;2023-02-20T05:18:55;10.80;;;8.38;;
24813;SDS011;12904;50.088;11.414;2023-02-20T05:21:20;12.05;;;8.18;;
24813;SDS011;12904;50.088;11.414;2023-02-20T05:24:05;11.00;;;7.75;;
24813;SDS011;12904;50.088;11.414;2023-02-20T05:26:30;12.80;;;9.85;;
24813;SDS011;12904;50.088;11.414;2023-02-20T05:28:56;11.05;;;8.38;;
24813;SDS011;12904;50.088;11.414;2023-02-20T05:31:22;10.43;;;7.60;;
24813;SDS011;12904;50.088;11.414;2023-02-20T05:33:47;10.52;;;7.97;;
24813;SDS011;12904;50.088;11.414;2023-02-20T05:36:13;12.60;;;9.23;;
24813;SDS011;12904;50.088;11.414;2023-02-20T05:38:39;11.25;;;9.23;;
24813;SDS011;12904;50.088;11.414;2023-02-20T05:41:11;12.57;;;8.38;;
24813;SDS011;12904;50.088;11.414;2023-02-20T05:43:40;11.70;;;8.73;;
24813;SDS011;12904;50.088;11.414;2023-02-20T05:46:06;9.00;;;8.02;;
24813;SDS011;12904;50.088;11.414;2023-02-20T05:48:31;14.20;;;9.50;;
24813;SDS011;12904;50.088;11.414;2023-02-20T05:50:57;10.43;;;8.10;;
24813;SDS011;12904;50.088;11.414;2023-02-20T05:53:23;9.90;;;8.25;;
24813;SDS011;12904;50.088;11.414;2023-02-20T05:55:51;11.40;;;8.73;;
24813;SDS011;12904;50.088;11.414;2023-02-20T05:58:16;9.15;;;8.25;;
24813;SDS011;12904;50.088;11.414;2023-02-20T06:00:42;13.35;;;8.70;;
24813;SDS011;12904;50.088;11.414;2023-02-20T06:03:07;17.08;;;9.07;;
24813;SDS011;12904;50.088;11.414;2023-02-20T06:05:36;17.95;;;9.52;;
24813;SDS011;12904;50.088;11.414;2023-02-20T06:08:02;11.05;;;8.15;;
24813;SDS011;12904;50.088;11.414;2023-02-20T06:10:28;10.98;;;8.23;;
24813;SDS011;12904;50.088;11.414;2023-02-20T06:12:54;8.68;;;7.65;;
24813;SDS011;12904;50.088;11.414;2023-02-20T06:15:19;13.20;;;8.02;;
24813;SDS011;12904;50.088;11.414;2023-02-20T06:17:45;10.07;;;8.52;;
24813;SDS011;12904;50.088;11.414;2023-02-20T06:20:11;10.55;;;8.15;;
24813;SDS011;12904;50.088;11.414;2023-02-20T06:22:36;10.07;;;7.43;;
24813;SDS011;12904;50.088;11.414;2023-02-20T06:25:02;11.38;;;7.80;;
24813;SDS011;12904;50.088;11.414;2023-02-20T06:27:28;10.98;;;8.10;;
24813;SDS011;12904;50.088;11.414;2023-02-20T06:29:53;17.75;;;8.73;;
24813;SDS011;12904;50.088;11.414;2023-02-20T06:32:19;10.48;;;7.25;;
24813;SDS011;12904;50.088;11.414;2023-02-20T06:34:45;9.32;;;7.68;;
24813;SDS011;12904;50.088;11.414;2023-02-20T06:37:11;11.23;;;6.88;;
24813;SDS011;12904;50.088;11.414;2023-02-20T06:39:37;10.95;;;7.70;;
24813;SDS011;12904;50.088;11.414;2023-02-20T06:42:04;11.95;;;7.93;;
24813;SDS011;12904;50.088;11.414;2023-02-20T06:44:30;10.52;;;6.90;;
24813;SDS011;12904;50.088;11.414;2023-02-20T06:46:57;10.77;;;7.55;;
24813;SDS011;12904;50.088;11.414;2023-02-20T06:49:23;9.50;;;7.50;;
24813;SDS011;12904;50.088;11.414;2023-02-20T06:51:51;10.93;;;7.80;;
24813;SDS011;12904;50.088;11.414;2023-02-20T06:54:17;9.30;;;7.50;;
24813;SDS011;12904;50.088;11.414;2023-02-20T06:56:45;10.60;;;7.03;;
24813;SDS011;12904;50.088;11.414;2023-02-20T06:59:12;8.95;;;7.05;;
24813;SDS011;12904;50.088;11.414;2023-02-20T07:01:39;9.00;;;6.90;;
24813;SDS011;12904;50.088;11.414;2023-02-20T07:04:08;9.00;;;7.20;;
24813;SDS011;12904;50.088;11.414;2023-02-20T07:06:41;10.73;;;7.43;;
24813;SDS011;12904;50.088;11.414;2023-02-20T07:09:06;12.77;;;7.18;;
24813;SDS011;12904;50.088;11.414;2023-02-20T07:11:32;9.00;;;6.50;;
24813;SDS011;12904;50.088;11.414;2023-02-20T07:13:58;9.32;;;7.85;;
24813;SDS011;12904;50.088;11.414;2023-02-20T07:16:24;9.63;;;6.70;;
24813;SDS011;12904;50.088;11.414;2023-02-20T07:18:49;6.72;;;5.50;;
24813;SDS011;12904;50.088;11.414;2023-02-20T07:21:15;8.55;;;6.70;;
24813;SDS011;12904;50.088;11.414;2023-02-20T07:23:42;8.60;;;6.93;;
24813;SDS011;12904;50.088;11.414;2023-02-20T07:26:25;10.00;;;6.93;;
24813;SDS011;12904;50.088;11.414;2023-02-20T07:28:53;9.43;;;7.18;;
24813;SDS011;12904;50.088;11.414;2023-02-20T07:31:19;9.65;;;6.38;;
24813;SDS011;12904;50.088;11.414;2023-02-20T07:33:45;9.82;;;6.30;;
24813;SDS011;12904;50.088;11.414;2023-02-20T07:36:12;9.73;;;6.63;;
24813;SDS011;12904;50.088;11.414;2023-02-20T07:38:38;10.13;;;6.40;;
24813;SDS011;12904;50.088;11.414;2023-02-20T07:41:04;10.20;;;5.97;;
24813;SDS011;12904;50.088;11.414;2023-02-20T07:43:30;11.30;;;6.68;;
24813;SDS011;12904;50.088;11.414;2023-02-20T07:45:56;11.40;;;7.10;;
24813;SDS011;12904;50.088;11.414;2023-02-20T07:48:22;10.57;;;6.70;;
24813;SDS011;12904;50.088;11.414;2023-02-20T07:50:47;10.88;;;7.07;;
24813;SDS011;12904;50.088;11.414;2023-02-20T07:53:14;11.80;;;6.35;;
24813;SDS011;12904;50.088;11.414;2023-02-20T07:55:41;10.93;;;6.80;;
24813;SDS011;12904;50.088;11.414;2023-02-20T07:58:07;9.52;;;6.13;;
24813;SDS011;12904;50.088;11.414;2023-02-20T08:00:32;15.35;;;6.82;;
24813;SDS011;12904;50.088;11.414;2023-02-20T08:02:58;11.07;;;6.50;;
24813;SDS011;12904;50.088;11.414;2023-02-20T08:05:24;8.20;;;6.80;;
24813;SDS011;12904;50.088;11.414;2023-02-20T08:07:50;8.07;;;6.65;;
24813;SDS011;12904;50.088;11.414;2023-02-20T08:10:18;9.13;;;6.55;;
24813;SDS011;12904;50.088;11.414;2023-02-20T08:12:46;11.55;;;7.07;;
24813;SDS011;12904;50.088;11.414;2023-02-20T08:15:12;12.50;;;7.45;;
24813;SDS011;12904;50.088;11.414;2023-02-20T08:17:38;8.88;;;6.18;;
24813;SDS011;12904;50.088;11.414;2023-02-20T08:20:05;9.23;;;6.85;;
24813;SDS011;12904;50.088;11.414;2023-02-20T08:22:32;10.23;;;6.78;;
24813;SDS011;12904;50.088;11.414;2023-02-20T08:24:58;10.52;;;6.07;;
24813;SDS011;12904;50.088;11.414;2023-02-20T08:27:24;13.90;;;7.05;;
24813;SDS011;12904;50.088;11.414;2023-02-20T08:29:51;9.27;;;4.97;;
24813;SDS011;12904;50.088;11.414;2023-02-20T08:32:18;12.50;;;6.15;;
24813;SDS011;12904;50.088;11.414;2023-02-20T08:34:43;9.60;;;6.20;;
24813;SDS011;12904;50.088;11.414;2023-02-20T08:37:09;8.93;;;5.90;;
24813;SDS011;12904;50.088;11.414;2023-02-20T08:39:35;7.50;;;5.65;;
24813;SDS011;12904;50.088;11.414;2023-02-20T08:42:01;12.10;;;7.38;;
24813;SDS011;12904;50.088;11.414;2023-02-20T08:44:27;7.53;;;5.55;;
24813;SDS011;12904;50.088;11.414;2023-02-20T08:46:52;8.20;;;5.55;;
24813;SDS011;12904;50.088;11.414;2023-02-20T08:49:18;10.75;;;5.70;;
24813;SDS011;12904;50.088;11.414;2023-02-20T08:51:45;8.77;;;5.90;;
24813;SDS011;12904;50.088;11.414;2023-02-20T08:54:12;6.55;;;5.47;;
24813;SDS011;12904;50.088;11.414;2023-02-20T08:56:39;11.15;;;5.10;;
24813;SDS011;12904;50.088;11.414;2023-02-20T08:59:06;6.07;;;5.38;;
24813;SDS011;12904;50.088;11.414;2023-02-20T09:01:32;8.38;;;5.80;;
24813;SDS011;12904;50.088;11.414;2023-02-20T09:03:57;8.68;;;5.20;;
24813;SDS011;12904;50.088;11.414;2023-02-20T09:06:23;7.00;;;5.88;;
24813;SDS011;12904;50.088;11.414;2023-02-20T09:08:50;6.80;;;5.50;;
24813;SDS011;12904;50.088;11.414;2023-02-20T09:11:16;8.13;;;5.57;;
24813;SDS011;12904;50.088;11.414;2023-02-20T09:13:45;7.70;;;4.80;;
24813;SDS011;12904;50.088;11.414;2023-02-20T09:16:13;6.70;;;5.43;;
24813;SDS011;12904;50.088;11.414;2023-02-20T09:18:40;7.07;;;4.90;;
24813;SDS011;12904;50.088;11.414;2023-02-20T09:21:07;6.68;;;4.85;;
24813;SDS011;12904;50.088;11.414;2023-02-20T09:23:35;5.72;;;4.68;;
24813;SDS011;12904;50.088;11.414;2023-02-20T09:26:01;7.43;;;5.13;;
24813;SDS011;12904;50.088;11.414;2023-02-20T09:28:27;6.18;;;4.85;;
24813;SDS011;12904;50.088;11.414;2023-02-20T09:30:53;8.00;;;4.90;;
24813;SDS011;12904;50.088;11.414;2023-02-20T09:33:19;6.70;;;4.55;;
24813;SDS011;12904;50.088;11.414;2023-02-20T09:35:45;11.60;;;4.22;;
24813;SDS011;12904;50.088;11.414;2023-02-20T09:38:13;5.93;;;3.50;;
24813;SDS011;12904;50.088;11.414;2023-02-20T09:40:39;7.05;;;3.90;;
24813;SDS011;12904;50.088;11.414;2023-02-20T09:43:16;4.70;;;3.55;;
24813;SDS011;12904;50.088;11.414;2023-02-20T09:46:00;3.03;;;2.63;;
24813;SDS011;12904;50.088;11.414;2023-02-20T09:51:26;5.68;;;3.03;;
24813;SDS011;12904;50.088;11.414;2023-02-20T09:56:49;4.43;;;2.93;;
24813;SDS011;12904;50.088;11.414;2023-02-20T09:59:18;4.38;;;2.40;;
24813;SDS011;12904;50.088;11.414;2023-02-20T10:01:56;5.57;;;3.30;;
24813;SDS011;12904;50.088;11.414;2023-02-20T10:04:47;5.47;;;3.30;;
24813;SDS011;12904;50.088;11.414;2023-02-20T10:07:15;5.35;;;3.22;;
24813;SDS011;12904;50.088;11.414;2023-02-20T10:09:54;4.13;;;3.25;;
24813;SDS011;12904;50.088;11.414;2023-02-20T10:26:29;4.53;;;2.65;;
24813;SDS011;12904;50.088;11.414;2023-02-20T10:28:58;4.15;;;2.58;;
24813;SDS011;12904;50.088;11.414;2023-02-20T10:31:39;4.70;;;2.58;;
24813;SDS011;12904;50.088;11.414;2023-02-20T10:39:17;2.92;;;2.28;;
24813;SDS011;12904;50.088;11.414;2023-02-20T10:44:52;6.22;;;2.63;;
24813;SDS011;12904;50.088;11.414;2023-02-20T10:50:11;7.80;;;2.75;;
24813;SDS011;12904;50.088;11.414;2023-02-20T10:52:55;3.63;;;1.70;;
24813;SDS011;12904;50.088;11.414;2023-02-20T10:58:16;4.25;;;2.75;;
24813;SDS011;12904;50.088;11.414;2023-02-20T11:00:51;4.40;;;1.77;;
24813;SDS011;12904;50.088;11.414;2023-02-20T11:03:29;3.58;;;1.80;;
24813;SDS011;12904;50.088;11.414;2023-02-20T11:06:00;4.32;;;2.08;;
24813;SDS011;12904;50.088;11.414;2023-02-20T11:08:27;2.70;;;1.63;;
24813;SDS011;12904;50.088;11.414;2023-02-20T11:10:55;6.47;;;2.60;;
24813;SDS011;12904;50.088;11.414;2023-02-20T11:13:23;4.82;;;1.90;;
24813;SDS011;12904;50.088;11.414;2023-02-20T11:15:51;3.50;;;1.90;;
24813;SDS011;12904;50.088;11.414;2023-02-20T11:18:21;1.85;;;1.67;;
24813;SDS011;12904;50.088;11.414;2023-02-20T11:23:32;1.88;;;1.58;;
24813;SDS011;12904;50.088;11.414;2023-02-20T11:26:11;4.72;;;2.53;;
24813;SDS011;12904;50.088;11.414;2023-02-20T11:29:10;3.00;;;1.70;;
24813;SDS011;12904;50.088;11.414;2023-02-20T11:31:39;4.25;;;1.85;;
24813;SDS011;12904;50.088;11.414;2023-02-20T11:34:10;3.30;;;2.00;;
24813;SDS011;12904;50.088;11.414;2023-02-20T11:36:45;3.30;;;1.90;;
24813;SDS011;12904;50.088;11.414;2023-02-20T11:39:21;4.63;;;2.28;;
24813;SDS011;12904;50.088;11.414;2023-02-20T11:42:11;6.40;;;2.00;;
24813;SDS011;12904;50.088;11.414;2023-02-20T11:44:42;2.83;;;2.00;;
24813;SDS011;12904;50.088;11.414;2023-02-20T11:47:25;5.22;;;2.80;;
24813;SDS011;12904;50.088;11.414;2023-02-20T11:50:13;5.63;;;2.33;;
24813;SDS011;12904;50.088;11.414;2023-02-20T11:53:02;4.88;;;1.88;;
24813;SDS011;12904;50.088;11.414;2023-02-20T11:55:29;2.40;;;1.90;;
24813;SDS011;12904;50.088;11.414;2023-02-20T11:57:56;3.17;;;2.00;;
24813;SDS011;12904;50.088;11.414;2023-02-20T12:00:29;7.80;;;2.30;;
24813;SDS011;12904;50.088;11.414;2023-02-20T12:03:13;4.30;;;2.60;;
24813;SDS011;12904;50.088;11.414;2023-02-20T12:05:45;6.47;;;2.28;;
24813;SDS011;12904;50.088;11.414;2023-02-20T12:11:02;5.25;;;2.15;;
24813;SDS011;12904;50.088;11.414;2023-02-20T12:13:36;5.60;;;3.22;;
24813;SDS011;12904;50.088;11.414;2023-02-20T12:18:58;6.10;;;2.83;;
24813;SDS011;12904;50.088;11.414;2023-02-20T12:21:49;4.68;;;2.88;;
24813;SDS011;12904;50.088;11.414;2023-02-20T12:27:02;7.47;;;3.13;;
24813;SDS011;12904;50.088;11.414;2023-02-20T12:35:33;3.83;;;2.30;;
24813;SDS011;12904;50.088;11.414;2023-02-20T12:46:04;2.42;;;1.90;;
24813;SDS011;12904;50.088;11.414;2023-02-20T12:48:56;4.07;;;2.38;;
24813;SDS011;12904;50.088;11.414;2023-02-20T12:51:30;3.58;;;2.60;;
24813;SDS011;12904;50.088;11.414;2023-02-20T12:54:38;6.00;;;3.00;;
24813;SDS011;12904;50.088;11.414;2023-02-20T13:00:06;6.88;;;2.90;;
24813;SDS011;12904;50.088;11.414;2023-02-20T13:03:19;5.95;;;2.80;;
24813;SDS011;12904;50.088;11.414;2023-02-20T13:06:01;5.03;;;2.80;;
24813;SDS011;12904;50.088;11.414;2023-02-20T13:11:15;4.38;;;2.58;;
24813;SDS011;12904;50.088;11.414;2023-02-20T13:17:16;5.45;;;2.30;;
24813;SDS011;12904;50.088;11.414;2023-02-20T13:22:02;3.72;;;2.35;;
24813;SDS011;12904;50.088;11.414;2023-02-20T13:24:31;5.57;;;2.17;;
24813;SDS011;12904;50.088;11.414;2023-02-20T13:27:00;3.83;;;2.47;;
24813;SDS011;12904;50.088;11.414;2023-02-20T13:29:31;5.40;;;2.40;;
24813;SDS011;12904;50.088;11.414;2023-02-20T13:32:20;4.45;;;2.38;;
24813;SDS011;12904;50.088;11.414;2023-02-20T13:34:53;4.80;;;2.42;;
24813;SDS011;12904;50.088;11.414;2023-02-20T13:43:12;4.45;;;2.28;;
24813;SDS011;12904;50.088;11.414;2023-02-20T13:45:42;3.67;;;2.28;;
24813;SDS011;12904;50.088;11.414;2023-02-20T13:48:16;3.20;;;2.22;;
24813;SDS011;12904;50.088;11.414;2023-02-20T13:56:20;4.38;;;2.40;;
24813;SDS011;12904;50.088;11.414;2023-02-20T13:58:50;3.35;;;1.70;;
24813;SDS011;12904;50.088;11.414;2023-02-20T14:01:19;5.03;;;2.38;;
24813;SDS011;12904;50.088;11.414;2023-02-20T14:03:44;5.15;;;2.47;;
24813;SDS011;12904;50.088;11.414;2023-02-20T14:06:11;3.50;;;1.60;;
24813;SDS011;12904;50.088;11.414;2023-02-20T14:08:40;2.75;;;1.70;;
24813;SDS011;12904;50.088;11.414;2023-02-20T14:11:08;4.28;;;1.60;;
24813;SDS011;12904;50.088;11.414;2023-02-20T14:13:36;3.50;;;1.77;;
24813;SDS011;12904;50.088;11.414;2023-02-20T14:16:21;5.30;;;1.80;;
24813;SDS011;12904;50.088;11.414;2023-02-20T14:18:50;10.43;;;2.00;;
24813;SDS011;12904;50.088;11.414;2023-02-20T14:21:17;3.95;;;1.85;;
24813;SDS011;12904;50.088;11.414;2023-02-20T14:23:46;3.42;;;1.60;;
24813;SDS011;12904;50.088;11.414;2023-02-20T14:26:22;3.28;;;1.80;;
24813;SDS011;12904;50.088;11.414;2023-02-20T14:28:50;2.53;;;1.75;;
24813;SDS011;12904;50.088;11.414;2023-02-20T14:31:32;4.45;;;1.88;;
24813;SDS011;12904;50.088;11.414;2023-02-20T14:36:32;5.43;;;1.85;;
24813;SDS011;12904;50.088;11.414;2023-02-20T14:41:53;5.57;;;1.90;;
24813;SDS011;12904;50.088;11.414;2023-02-20T14:44:21;4.20;;;2.10;;
24813;SDS011;12904;50.088;11.414;2023-02-20T14:46:49;4.18;;;1.70;;
24813;SDS011;12904;50.088;11.414;2023-02-20T14:49:25;3.75;;;1.50;;
24813;SDS011;12904;50.088;11.414;2023-02-20T14:52:03;3.20;;;1.98;;
24813;SDS011;12904;50.088;11.414;2023-02-20T14:54:36;4.43;;;1.95;;
24813;SDS011;12904;50.088;11.414;2023-02-20T14:57:03;4.40;;;2.00;;
24813;SDS011;12904;50.088;11.414;2023-02-20T15:04:45;5.22;;;2.40;;
24813;SDS011;12904;50.088;11.414;2023-02-20T15:07:12;2.58;;;1.60;;
24813;SDS011;12904;50.088;11.414;2023-02-20T15:09:39;4.13;;;1.80;;
24813;SDS011;12904;50.088;11.414;2023-02-20T15:12:22;3.53;;;2.08;;
24813;SDS011;12904;50.088;11.414;2023-02-20T15:14:59;5.05;;;1.50;;
24813;SDS011;12904;50.088;11.414;2023-02-20T15:17:29;7.82;;;1.77;;
24813;SDS011;12904;50.088;11.414;2023-02-20T15:20:14;4.32;;;2.50;;
24813;SDS011;12904;50.088;11.414;2023-02-20T15:22:41;4.55;;;2.22;;
24813;SDS011;12904;50.088;11.414;2023-02-20T15:25:29;3.45;;;1.65;;
24813;SDS011;12904;50.088;11.414;2023-02-20T15:33:35;6.60;;;2.08;;
24813;SDS011;12904;50.088;11.414;2023-02-20T15:36:02;7.90;;;1.73;;
24813;SDS011;12904;50.088;11.414;2023-02-20T15:38:30;3.00;;;1.48;;
24813;SDS011;12904;50.088;11.414;2023-02-20T15:40:58;2.92;;;1.42;;
24813;SDS011;12904;50.088;11.414;2023-02-20T15:43:25;4.28;;;1.60;;
24813;SDS011;12904;50.088;11.414;2023-02-20T15:45:51;3.50;;;1.40;;
24813;SDS011;12904;50.088;11.414;2023-02-20T15:48:17;4.80;;;2.05;;
24813;SDS011;12904;50.088;11.414;2023-02-20T15:50:43;3.47;;;1.45;;
24813;SDS011;12904;50.088;11.414;2023-02-20T15:53:10;4.80;;;1.45;;
24813;SDS011;12904;50.088;11.414;2023-02-20T15:55:42;2.92;;;1.33;;
24813;SDS011;12904;50.088;11.414;2023-02-20T16:00:54;4.90;;;1.42;;
24813;SDS011;12904;50.088;11.414;2023-02-20T16:03:21;7.75;;;1.40;;
24813;SDS011;12904;50.088;11.414;2023-02-20T16:05:47;2.28;;;1.40;;
24813;SDS011;12904;50.088;11.414;2023-02-20T16:08:13;2.67;;;2.10;;
24813;SDS011;12904;50.088;11.414;2023-02-20T16:10:38;2.13;;;1.63;;
24813;SDS011;12904;50.088;11.414;2023-02-20T16:13:04;3.85;;;1.70;;
24813;SDS011;12904;50.088;11.414;2023-02-20T16:15:30;5.88;;;1.52;;
24813;SDS011;12904;50.088;11.414;2023-02-20T16:17:56;2.70;;;1.40;;
24813;SDS011;12904;50.088;11.414;2023-02-20T16:20:23;2.80;;;1.75;;
24813;SDS011;12904;50.088;11.414;2023-02-20T16:22:51;4.93;;;2.13;;
24813;SDS011;12904;50.088;11.414;2023-02-20T16:25:18;5.55;;;1.77;;
24813;SDS011;12904;50.088;11.414;2023-02-20T16:27:45;6.32;;;2.58;;
24813;SDS011;12904;50.088;11.414;2023-02-20T16:30:20;5.75;;;1.90;;
24813;SDS011;12904;50.088;11.414;2023-02-20T16:32:50;5.25;;;1.80;;
24813;SDS011;12904;50.088;11.414;2023-02-20T16:35:18;3.28;;;1.40;;
24813;SDS011;12904;50.088;11.414;2023-02-20T16:37:44;2.33;;;1.40;;
24813;SDS011;12904;50.088;11.414;2023-02-20T16:40:10;5.40;;;2.30;;
24813;SDS011;12904;50.088;11.414;2023-02-20T16:42:38;4.18;;;1.90;;
24813;SDS011;12904;50.088;11.414;2023-02-20T16:45:09;3.75;;;2.10;;
24813;SDS011;12904;50.088;11.414;2023-02-20T16:47:37;4.18;;;2.15;;
24813;SDS011;12904;50.088;11.414;2023-02-20T16:50:02;6.45;;;2.22;;
24813;SDS011;12904;50.088;11.414;2023-02-20T16:52:37;6.97;;;1.70;;
24813;SDS011;12904;50.088;11.414;2023-02-20T16:55:16;6.88;;;2.30;;
24813;SDS011;12904;50.088;11.414;2023-02-20T16:57:42;3.50;;;2.10;;
24813;SDS011;12904;50.088;11.414;2023-02-20T17:00:12;7.40;;;2.13;;
24813;SDS011;12904;50.088;11.414;2023-02-20T17:02:39;5.90;;;2.60;;
24813;SDS011;12904;50.088;11.414;2023-02-20T17:05:04;6.68;;;2.15;;
24813;SDS011;12904;50.088;11.414;2023-02-20T17:07:30;4.35;;;2.55;;